createdAt,value
2023-12-21T00:00:12.652Z,6.70
2023-12-21T00:02:51.955Z,6.67
2023-12-21T00:05:36.346Z,6.70
2023-12-21T00:08:15.723Z,6.63
2023-12-21T00:10:55.036Z,6.60
2023-12-21T00:13:34.434Z,6.58
2023-12-21T00:16:14.909Z,6.88
2023-12-21T00:18:54.336Z,6.75
2023-12-21T00:21:38.775Z,6.71
2023-12-21T00:24:18.047Z,6.69
2023-12-21T00:26:57.304Z,6.77
2023-12-21T00:29:36.973Z,6.87
2023-12-21T00:32:16.285Z,6.98
2023-12-21T00:34:56.603Z,6.83
2023-12-21T00:37:41.057Z,6.86
2023-12-21T00:40:23.103Z,6.87
2023-12-21T00:43:02.461Z,6.73
2023-12-21T00:45:41.791Z,6.81
2023-12-21T00:48:21.728Z,6.76
2023-12-21T00:51:01.037Z,6.65
2023-12-21T00:53:45.385Z,6.67
2023-12-21T00:56:24.665Z,6.71
2023-12-21T00:59:06.485Z,6.67
2023-12-21T01:01:45.954Z,6.67
2023-12-21T01:04:25.562Z,6.79
2023-12-21T01:07:04.894Z,6.78
2023-12-21T01:09:49.627Z,6.68
2023-12-21T01:12:34.348Z,6.65
2023-12-21T01:15:15.123Z,6.73
2023-12-21T01:17:54.588Z,6.87
2023-12-21T01:20:33.966Z,6.80
2023-12-21T01:23:13.254Z,6.84
2023-12-21T01:25:57.602Z,6.83
2023-12-21T01:28:36.912Z,6.81
2023-12-21T01:31:16.373Z,6.82
2023-12-21T01:33:55.864Z,6.85
2023-12-21T01:36:35.213Z,6.88
2023-12-21T01:39:14.506Z,6.86
2023-12-21T01:41:58.894Z,6.88
2023-12-21T01:44:38.200Z,6.87
2023-12-21T01:47:18.641Z,6.81
2023-12-21T01:49:58.516Z,6.77
2023-12-21T01:52:38.413Z,6.77
2023-12-21T01:55:20.216Z,6.80
2023-12-21T01:58:06.065Z,6.76
2023-12-21T02:00:45.419Z,7.16
2023-12-21T02:03:28.642Z,7.18
2023-12-21T02:06:07.977Z,7.10
2023-12-21T02:08:47.301Z,7.05
2023-12-21T02:11:26.557Z,7.05
2023-12-21T02:14:12.102Z,6.89
2023-12-21T02:17:03.891Z,7.09
2023-12-21T02:19:43.564Z,7.00
2023-12-21T02:22:24.557Z,6.95
2023-12-21T02:25:09.582Z,6.93
2023-12-21T02:27:48.956Z,7.08
2023-12-21T02:30:28.291Z,6.98
2023-12-21T02:33:07.637Z,7.00
2023-12-21T02:35:46.910Z,6.96
2023-12-21T02:38:26.178Z,7.06
2023-12-21T02:41:10.618Z,7.65
2023-12-21T02:43:49.975Z,7.94
2023-12-21T02:46:32.141Z,7.88
2023-12-21T02:49:11.552Z,7.57
2023-12-21T02:51:51.018Z,7.49
2023-12-21T02:54:30.334Z,7.40
2023-12-21T02:57:14.701Z,7.31
2023-12-21T02:59:54.029Z,7.18
2023-12-21T03:02:33.903Z,7.21
2023-12-21T03:05:14.503Z,7.08
2023-12-21T03:07:56.269Z,7.04
2023-12-21T03:10:35.551Z,7.05
2023-12-21T03:13:20.119Z,7.13
2023-12-21T03:15:59.482Z,7.08
2023-12-21T03:18:39.240Z,7.20
2023-12-21T03:21:18.627Z,7.14
2023-12-21T03:23:58.948Z,7.17
2023-12-21T03:26:39.048Z,7.17
2023-12-21T03:29:23.490Z,7.09
2023-12-21T03:32:02.816Z,7.40
2023-12-21T03:34:42.654Z,7.34
2023-12-21T03:37:21.973Z,7.27
2023-12-21T03:40:01.522Z,7.23
2023-12-21T03:42:40.828Z,7.48
2023-12-21T03:45:26.077Z,7.49
2023-12-21T03:48:05.352Z,7.55
2023-12-21T03:50:45.480Z,7.45
2023-12-21T03:53:24.819Z,7.46
2023-12-21T03:56:04.121Z,7.48
2023-12-21T03:58:44.602Z,7.34
2023-12-21T04:01:37.044Z,7.37
2023-12-21T04:04:16.425Z,7.40
2023-12-21T04:06:55.764Z,7.31
2023-12-21T04:09:35.145Z,8.02
2023-12-21T04:12:15.639Z,7.96
2023-12-21T04:14:54.954Z,8.02
2023-12-21T04:17:39.391Z,7.88
2023-12-21T04:20:19.728Z,7.71
2023-12-21T04:22:58.976Z,7.86
2023-12-21T04:25:38.386Z,7.76
2023-12-21T04:28:17.731Z,7.65
2023-12-21T04:30:57.200Z,7.98
2023-12-21T04:33:42.034Z,7.80
2023-12-21T04:36:25.453Z,7.80
2023-12-21T04:39:05.769Z,7.93
2023-12-21T04:41:45.120Z,7.75
2023-12-21T04:44:24.690Z,7.66
2023-12-21T04:47:04.533Z,7.71
2023-12-21T04:49:49.002Z,7.76
2023-12-21T04:52:28.641Z,7.65
2023-12-21T04:55:08.053Z,7.65
2023-12-21T04:57:47.416Z,7.58
2023-12-21T05:00:28.324Z,7.52
2023-12-21T05:03:07.783Z,7.59
2023-12-21T05:05:52.358Z,7.56
2023-12-21T05:08:31.650Z,7.53
2023-12-21T05:11:10.972Z,7.53
2023-12-21T05:13:50.236Z,7.64
2023-12-21T05:16:29.797Z,7.92
2023-12-21T05:19:09.357Z,7.65
2023-12-21T05:21:53.829Z,7.58
2023-12-21T05:24:33.192Z,7.43
2023-12-21T05:27:13.913Z,7.47
2023-12-21T05:29:53.222Z,7.93
2023-12-21T05:32:32.922Z,7.83
2023-12-21T05:35:13.453Z,7.71
2023-12-21T05:37:57.903Z,7.62
2023-12-21T05:40:37.239Z,7.49
2023-12-21T05:43:16.553Z,7.48
2023-12-21T05:45:56.179Z,7.48
2023-12-21T05:48:35.488Z,7.65
2023-12-21T05:51:14.829Z,7.69
2023-12-21T05:53:59.388Z,7.79
2023-12-21T05:56:38.889Z,8.28
2023-12-21T05:59:18.653Z,8.09
2023-12-21T06:01:58.079Z,7.98
2023-12-21T06:04:38.011Z,7.86
2023-12-21T06:07:17.427Z,7.82
2023-12-21T06:10:01.934Z,7.84
2023-12-21T06:12:41.363Z,7.89
2023-12-21T06:15:21.803Z,7.91
2023-12-21T06:18:01.123Z,7.80
2023-12-21T06:20:40.503Z,7.79
2023-12-21T06:23:19.792Z,7.83
2023-12-21T06:26:04.199Z,7.76
2023-12-21T06:28:43.579Z,7.79
2023-12-21T06:31:22.909Z,7.77
2023-12-21T06:34:02.457Z,7.95
2023-12-21T06:36:41.783Z,8.08
2023-12-21T06:39:21.399Z,7.75
2023-12-21T06:42:06.285Z,7.76
2023-12-21T06:44:45.564Z,8.01
2023-12-21T06:47:24.924Z,7.97
2023-12-21T06:50:05.478Z,8.13
2023-12-21T06:52:45.172Z,8.20
2023-12-21T06:55:25.175Z,8.23
2023-12-21T06:58:09.813Z,7.97
2023-12-21T07:00:49.804Z,8.00
2023-12-21T07:03:29.412Z,7.94
2023-12-21T07:06:09.170Z,7.91
2023-12-21T07:08:48.657Z,7.97
2023-12-21T07:11:28.021Z,8.01
2023-12-21T07:14:12.459Z,8.08
2023-12-21T07:16:51.835Z,8.09
2023-12-21T07:19:31.097Z,8.01
2023-12-21T07:22:10.746Z,8.36
2023-12-21T07:24:50.079Z,8.27
2023-12-21T07:27:29.375Z,8.20
2023-12-21T07:30:15.539Z,8.07
2023-12-21T07:32:55.038Z,7.98
2023-12-21T07:35:34.378Z,8.07
2023-12-21T07:38:14.589Z,8.56
2023-12-21T07:40:54.365Z,8.64
2023-12-21T07:43:33.700Z,8.52
2023-12-21T07:46:18.124Z,8.40
2023-12-21T07:48:57.584Z,8.32
2023-12-21T07:51:36.925Z,8.24
2023-12-21T07:54:16.218Z,8.37
2023-12-21T07:56:56.101Z,8.32
2023-12-21T07:59:35.454Z,8.25
2023-12-21T08:02:19.991Z,8.24
2023-12-21T08:04:59.381Z,8.31
2023-12-21T08:07:38.817Z,8.33
2023-12-21T08:10:18.241Z,8.70
2023-12-21T08:12:57.578Z,8.57
2023-12-21T08:15:36.958Z,8.60
2023-12-21T08:18:21.595Z,8.46
2023-12-21T08:21:01.154Z,8.45
2023-12-21T08:23:40.495Z,8.66
2023-12-21T08:26:19.946Z,8.10
2023-12-21T08:28:59.509Z,8.13
2023-12-21T08:31:38.901Z,8.09
2023-12-21T08:34:24.932Z,8.73
2023-12-21T08:37:04.297Z,8.53
2023-12-21T08:39:43.666Z,8.42
2023-12-21T08:42:22.991Z,8.38
2023-12-21T08:45:02.330Z,8.64
2023-12-21T08:47:43.424Z,8.46
2023-12-21T08:50:27.925Z,8.47
2023-12-21T08:53:07.540Z,8.94
2023-12-21T08:55:47.108Z,8.79
2023-12-21T08:58:26.508Z,8.67
2023-12-21T09:01:06.473Z,9.16
2023-12-21T09:03:46.230Z,9.52
2023-12-21T09:06:30.592Z,9.25
2023-12-21T09:09:11.533Z,9.07
2023-12-21T09:11:51.729Z,8.92
2023-12-21T09:14:31.031Z,8.62
2023-12-21T09:17:10.415Z,8.63
2023-12-21T09:19:50.708Z,9.23
2023-12-21T09:22:35.172Z,9.12
2023-12-21T09:25:15.587Z,8.77
2023-12-21T09:27:56.008Z,8.73
2023-12-21T09:30:35.359Z,8.60
2023-12-21T09:33:15.255Z,8.82
2023-12-21T09:35:57.075Z,10.18
2023-12-21T09:38:41.431Z,9.36
2023-12-21T09:41:21.428Z,9.03
2023-12-21T09:44:02.610Z,8.86
2023-12-21T09:46:42.153Z,9.12
2023-12-21T09:49:22.262Z,8.86
2023-12-21T09:52:02.649Z,9.39
2023-12-21T09:54:49.905Z,8.96
2023-12-21T09:57:30.748Z,9.05
2023-12-21T10:00:11.740Z,8.86
2023-12-21T10:02:51.355Z,9.01
2023-12-21T10:05:30.747Z,8.73
2023-12-21T10:08:11.130Z,8.83
2023-12-21T10:10:55.760Z,8.91
2023-12-21T10:13:35.399Z,8.73
2023-12-21T10:16:15.389Z,8.74
2023-12-21T10:18:54.769Z,8.76
2023-12-21T10:21:34.728Z,9.09
2023-12-21T10:24:14.818Z,8.66
2023-12-21T10:26:59.876Z,8.62
2023-12-21T10:29:39.122Z,8.75
2023-12-21T10:32:18.407Z,8.85
2023-12-21T10:35:01.035Z,8.80
2023-12-21T10:37:41.762Z,8.78
2023-12-21T10:40:21.551Z,8.74
2023-12-21T10:43:06.735Z,9.50
2023-12-21T10:45:46.400Z,9.56
2023-12-21T10:48:28.734Z,9.25
2023-12-21T10:51:09.755Z,9.22
2023-12-21T10:53:51.443Z,9.24
2023-12-21T10:56:33.754Z,9.05
2023-12-21T10:59:22.210Z,8.83
2023-12-21T11:02:03.290Z,9.65
2023-12-21T11:04:46.486Z,9.32
2023-12-21T11:07:28.482Z,9.01
2023-12-21T11:10:09.880Z,8.95
2023-12-21T11:12:50.122Z,8.81
2023-12-21T11:15:35.051Z,8.60
2023-12-21T11:18:20.131Z,8.52
2023-12-21T11:21:05.490Z,8.36
2023-12-21T11:23:49.217Z,8.24
2023-12-21T11:26:30.429Z,8.42
2023-12-21T11:29:13.090Z,8.58
2023-12-21T11:31:57.920Z,8.32
2023-12-21T11:34:44.723Z,8.35
2023-12-21T11:37:29.319Z,8.41
2023-12-21T11:40:13.502Z,8.40
2023-12-21T11:42:54.624Z,8.23
2023-12-21T11:45:37.414Z,8.24
2023-12-21T11:48:22.986Z,8.22
2023-12-21T11:51:09.178Z,8.54
2023-12-21T11:53:48.772Z,8.64
2023-12-21T11:56:28.357Z,8.50
2023-12-21T11:59:08.939Z,8.34
2023-12-21T12:01:49.510Z,8.32
2023-12-21T12:04:33.987Z,8.34
2023-12-21T12:07:13.534Z,8.25
2023-12-21T12:09:53.861Z,8.27
2023-12-21T12:12:33.275Z,8.56
2023-12-21T12:15:13.505Z,8.48
2023-12-21T12:17:53.212Z,8.81
2023-12-21T12:20:37.843Z,8.40
2023-12-21T12:23:17.294Z,8.49
2023-12-21T12:25:56.794Z,8.63
2023-12-21T12:28:36.510Z,8.53
2023-12-21T12:31:16.762Z,8.54
2023-12-21T12:33:56.476Z,8.47
2023-12-21T12:36:40.872Z,8.66
2023-12-21T12:39:20.509Z,8.18
2023-12-21T12:42:05.753Z,9.11
2023-12-21T12:44:45.099Z,8.87
2023-12-21T12:47:25.307Z,8.63
2023-12-21T12:50:06.083Z,8.57
2023-12-21T12:52:53.598Z,8.67
2023-12-21T12:55:32.926Z,8.83
2023-12-21T12:58:12.972Z,8.65
2023-12-21T13:00:52.634Z,8.47
2023-12-21T13:03:33.295Z,8.33
2023-12-21T13:06:18.349Z,8.50
2023-12-21T13:09:03.441Z,8.41
2023-12-21T13:11:42.827Z,8.36
2023-12-21T13:14:22.237Z,8.33
2023-12-21T13:17:01.586Z,8.29
2023-12-21T13:19:40.990Z,8.81
2023-12-21T13:22:20.419Z,8.97
2023-12-21T13:25:04.894Z,8.61
2023-12-21T13:27:44.402Z,8.56
2023-12-21T13:30:25.517Z,8.53
2023-12-21T13:33:05.234Z,8.57
2023-12-21T13:35:44.674Z,8.65
2023-12-21T13:38:23.987Z,8.61
2023-12-21T13:41:10.913Z,8.91
2023-12-21T13:43:53.469Z,8.69
2023-12-21T13:46:33.257Z,8.63
2023-12-21T13:49:12.700Z,8.60
2023-12-21T13:51:54.411Z,8.62
2023-12-21T13:54:35.246Z,8.63
2023-12-21T13:57:20.405Z,8.57
2023-12-21T14:00:01.174Z,8.73
2023-12-21T14:02:40.491Z,8.61
2023-12-21T14:05:20.161Z,8.55
2023-12-21T14:07:59.644Z,8.71
2023-12-21T14:10:39.016Z,8.63
2023-12-21T14:13:23.430Z,8.51
2023-12-21T14:16:03.052Z,8.47
2023-12-21T14:18:42.442Z,8.62
2023-12-21T14:21:21.835Z,8.64
2023-12-21T14:23:56.076Z,8.58
2023-12-21T14:26:35.451Z,8.51
2023-12-21T14:29:19.906Z,8.45
2023-12-21T14:31:59.285Z,8.48
2023-12-21T14:34:38.725Z,8.50
2023-12-21T14:37:18.785Z,8.55
2023-12-21T14:39:58.077Z,8.64
2023-12-21T14:42:37.430Z,8.59
2023-12-21T14:45:22.587Z,8.56
2023-12-21T14:48:01.913Z,9.47
2023-12-21T14:50:41.259Z,9.68
2023-12-21T14:53:20.999Z,9.35
2023-12-21T14:56:00.327Z,9.14
2023-12-21T14:58:40.002Z,9.04
2023-12-21T15:01:24.502Z,8.97
2023-12-21T15:04:04.051Z,8.95
2023-12-21T15:06:43.503Z,8.81
2023-12-21T15:09:22.850Z,8.74
2023-12-21T15:12:02.110Z,8.56
2023-12-21T15:14:41.483Z,8.43
2023-12-21T15:17:26.132Z,8.64
2023-12-21T15:20:05.995Z,8.79
2023-12-21T15:22:48.954Z,8.66
2023-12-21T15:25:28.382Z,8.82
2023-12-21T15:28:08.154Z,8.83
2023-12-21T15:30:48.151Z,9.16
2023-12-21T15:33:32.523Z,9.32
2023-12-21T15:36:13.644Z,9.48
2023-12-21T15:38:52.912Z,9.88
2023-12-21T15:41:32.225Z,10.06
2023-12-21T15:44:11.805Z,10.06
2023-12-21T15:46:51.212Z,9.84
2023-12-21T15:49:35.672Z,9.93
2023-12-21T15:52:15.034Z,9.90
2023-12-21T15:54:54.437Z,9.85
2023-12-21T15:57:34.985Z,10.63
2023-12-21T16:00:19.489Z,10.87
2023-12-21T16:02:58.763Z,11.03
2023-12-21T16:05:43.394Z,10.82
2023-12-21T16:08:23.046Z,10.03
2023-12-21T16:11:02.320Z,10.04
2023-12-21T16:13:41.700Z,10.32
2023-12-21T16:16:21.161Z,10.12
2023-12-21T16:19:00.647Z,10.68
2023-12-21T16:21:45.100Z,11.07
2023-12-21T16:24:27.692Z,10.64
2023-12-21T16:27:08.739Z,10.29
2023-12-21T16:29:48.890Z,10.71
2023-12-21T16:32:28.292Z,10.55
2023-12-21T16:35:08.102Z,10.83
2023-12-21T16:37:54.169Z,10.77
2023-12-21T16:40:33.548Z,10.68
2023-12-21T16:43:12.917Z,10.47
2023-12-21T16:45:52.377Z,10.49
2023-12-21T16:48:31.916Z,10.21
2023-12-21T16:51:12.799Z,10.33
2023-12-21T16:53:57.346Z,10.48
2023-12-21T16:56:36.832Z,10.38
2023-12-21T16:59:16.099Z,10.24
2023-12-21T17:01:56.180Z,10.31
2023-12-21T17:04:35.735Z,10.26
2023-12-21T17:07:15.124Z,11.10
2023-12-21T17:09:59.537Z,10.62
2023-12-21T17:12:39.687Z,10.51
2023-12-21T17:15:19.181Z,10.34
2023-12-21T17:18:00.535Z,10.12
2023-12-21T17:20:40.073Z,9.87
2023-12-21T17:23:19.429Z,9.72
2023-12-21T17:26:03.796Z,9.61
2023-12-21T17:28:43.712Z,9.61
2023-12-21T17:31:23.119Z,9.55
2023-12-21T17:34:04.787Z,9.65
2023-12-21T17:36:44.378Z,9.57
2023-12-21T17:39:23.642Z,9.61
2023-12-21T17:42:07.963Z,10.28
2023-12-21T17:44:47.293Z,11.34
2023-12-21T17:47:26.597Z,10.38
2023-12-21T17:50:06.522Z,10.12
2023-12-21T17:52:46.149Z,9.90
2023-12-21T17:55:25.520Z,9.52
2023-12-21T17:58:09.928Z,9.41
2023-12-21T18:00:49.336Z,9.53
2023-12-21T18:03:30.707Z,9.47
2023-12-21T18:06:09.997Z,9.46
2023-12-21T18:08:49.236Z,9.32
2023-12-21T18:11:30.658Z,9.09
2023-12-21T18:14:15.146Z,8.99
2023-12-21T18:16:55.545Z,8.99
2023-12-21T18:19:35.095Z,8.77
2023-12-21T18:22:15.957Z,8.61
2023-12-21T18:24:55.612Z,8.60
2023-12-21T18:27:34.922Z,8.65
2023-12-21T18:30:20.741Z,8.79
2023-12-21T18:33:00.549Z,8.77
2023-12-21T18:35:40.645Z,8.80
2023-12-21T18:38:19.899Z,8.83
2023-12-21T18:40:59.450Z,8.89
2023-12-21T18:43:38.758Z,8.89
2023-12-21T18:46:23.327Z,8.91
2023-12-21T18:49:02.601Z,8.87
2023-12-21T18:51:41.973Z,8.89
2023-12-21T18:54:22.045Z,8.89
2023-12-21T18:57:01.373Z,8.84
2023-12-21T18:59:40.652Z,8.85
2023-12-21T19:02:25.027Z,8.82
2023-12-21T19:05:04.966Z,8.89
2023-12-21T19:07:44.699Z,8.91
2023-12-21T19:10:24.235Z,8.89
2023-12-21T19:13:04.396Z,9.05
2023-12-21T19:15:47.634Z,9.06
2023-12-21T19:18:32.152Z,9.45
2023-12-21T19:21:15.722Z,9.63
2023-12-21T19:23:56.191Z,6.81
2023-12-21T19:26:35.426Z,5.29
2023-12-21T19:29:14.702Z,5.08
2023-12-21T19:31:54.003Z,5.03
2023-12-21T19:34:38.401Z,5.20
2023-12-21T19:37:17.911Z,5.32
2023-12-21T19:39:57.156Z,5.63
2023-12-21T19:42:36.511Z,5.86
2023-12-21T19:45:16.637Z,5.92
2023-12-21T19:47:55.883Z,5.96
2023-12-21T19:50:42.779Z,6.03
2023-12-21T19:53:24.175Z,6.06
2023-12-21T19:56:03.892Z,6.12
2023-12-21T19:58:43.220Z,6.18
2023-12-21T20:01:22.603Z,6.27
2023-12-21T20:04:01.905Z,6.32
2023-12-21T20:06:46.438Z,6.30
2023-12-21T20:09:25.846Z,6.32
2023-12-21T20:12:05.140Z,6.34
2023-12-21T20:14:44.692Z,6.33
2023-12-21T20:17:24.013Z,6.33
2023-12-21T20:20:03.407Z,6.38
2023-12-21T20:22:48.060Z,6.39
2023-12-21T20:25:27.657Z,6.40
2023-12-21T20:28:09.782Z,6.43
2023-12-21T20:30:49.073Z,6.48
2023-12-21T20:33:29.985Z,6.55
2023-12-21T20:36:09.462Z,6.59
2023-12-21T20:38:53.876Z,6.63
2023-12-21T20:41:33.221Z,6.65
2023-12-21T20:44:12.681Z,6.68
2023-12-21T20:46:52.415Z,6.69
2023-12-21T20:49:32.734Z,6.61
2023-12-21T20:52:12.742Z,6.54
2023-12-21T20:54:58.169Z,6.29
2023-12-21T20:57:37.450Z,6.00
2023-12-21T21:00:18.766Z,5.65
2023-12-21T21:02:58.090Z,5.61
2023-12-21T21:05:37.413Z,5.81
2023-12-21T21:08:16.859Z,5.69
2023-12-21T21:11:01.808Z,5.69
2023-12-21T21:13:41.485Z,5.62
2023-12-21T21:16:22.644Z,5.59
2023-12-21T21:19:02.822Z,5.86
2023-12-21T21:21:42.690Z,5.85
2023-12-21T21:24:22.288Z,5.63
2023-12-21T21:27:06.642Z,5.65
2023-12-21T21:29:45.916Z,5.68
2023-12-21T21:32:25.346Z,5.69
2023-12-21T21:35:05.242Z,5.69
2023-12-21T21:37:44.617Z,5.71
2023-12-21T21:40:24.157Z,5.72
2023-12-21T21:43:08.519Z,5.79
2023-12-21T21:45:47.923Z,5.83
2023-12-21T21:48:27.302Z,5.86
2023-12-21T21:51:06.597Z,5.75
2023-12-21T21:53:45.849Z,5.72
2023-12-21T21:56:25.179Z,5.69
2023-12-21T21:59:09.504Z,5.57
2023-12-21T22:01:52.763Z,5.73
2023-12-21T22:04:32.202Z,5.60
2023-12-21T22:07:11.969Z,5.68
2023-12-21T22:09:51.232Z,5.60
2023-12-21T22:12:30.575Z,5.54
2023-12-21T22:15:15.400Z,5.48
2023-12-21T22:17:54.724Z,5.42
2023-12-21T22:20:35.299Z,5.46
2023-12-21T22:23:14.708Z,5.56
2023-12-21T22:25:54.016Z,5.47
2023-12-21T22:28:33.344Z,5.47
2023-12-21T22:31:18.185Z,5.57
2023-12-21T22:33:58.631Z,5.56
2023-12-21T22:36:39.102Z,5.42
2023-12-21T22:39:18.645Z,5.34
2023-12-21T22:41:57.948Z,5.24
2023-12-21T22:44:37.250Z,5.17
2023-12-21T22:47:23.378Z,5.19
2023-12-21T22:50:03.754Z,5.01
2023-12-21T22:52:43.418Z,4.89
2023-12-21T22:55:22.728Z,4.75
2023-12-21T22:58:02.117Z,4.65
2023-12-21T23:00:41.420Z,4.73
2023-12-21T23:03:25.841Z,4.60
2023-12-21T23:06:05.103Z,4.58
2023-12-21T23:08:44.554Z,4.58
2023-12-21T23:11:23.825Z,4.58
2023-12-21T23:14:03.222Z,4.50
2023-12-21T23:16:42.527Z,4.45
2023-12-21T23:19:26.915Z,4.40
2023-12-21T23:22:06.209Z,4.42
2023-12-21T23:24:45.475Z,4.49
2023-12-21T23:27:24.757Z,4.46
2023-12-21T23:30:05.084Z,4.38
2023-12-21T23:32:44.471Z,4.35
2023-12-21T23:35:28.884Z,4.39
2023-12-21T23:38:08.219Z,4.39
2023-12-21T23:40:47.697Z,4.96
2023-12-21T23:43:27.036Z,4.92
2023-12-21T23:46:06.497Z,4.69
2023-12-21T23:48:46.479Z,4.64
2023-12-21T23:51:30.856Z,4.53
2023-12-21T23:54:10.147Z,4.50
2023-12-21T23:56:49.465Z,4.51
2023-12-21T23:59:28.721Z,4.47
